Terminal Aerodrome Forecast
Issued by NWS

Home | Current Version | Previous Version | Text Only | Print | Product List | Glossary On
Versions: 1 2 3 4 5 6 7 8 9 10 11 12 13 14 15 16 17 18 19 20
000
FTUS45 KVEF 301800 AAA
TAFBIH
TAF AMD
KBIH 301805Z 3018/3118 01024G32KT P6SM VCSH SCT110 OVC130
     FM302000 34008KT P6SM VCTS SCT080CB OVC120
      TEMPO 3020/3024 VRB20G30KT
     FM310300 32006KT P6SM SCT080 BKN120=

USA.gov is the U.S. government's official web portal to all federal, state and local government web resources and services.